sensor_id;sensor_type;location;lat;lon;timestamp;pressure;altitude;pressure_sealevel;temperature;humidity
53522;BME280;39398;48.382;9.802;2023-01-25T00:00:21;95161.75;;;1.36;100.00
53522;BME280;39398;48.382;9.802;2023-01-25T00:05:24;95148.41;;;1.66;100.00
53522;BME280;39398;48.382;9.802;2023-01-25T00:10:26;95138.53;;;1.46;100.00
53522;BME280;39398;48.382;9.802;2023-01-25T00:15:28;95143.50;;;1.61;100.00
53522;BME280;39398;48.382;9.802;2023-01-25T00:20:30;95129.28;;;1.42;100.00
53522;BME280;39398;48.382;9.802;2023-01-25T00:25:32;95125.66;;;1.31;100.00
53522;BME280;39398;48.382;9.802;2023-01-25T00:30:34;95115.97;;;0.82;100.00
53522;BME280;39398;48.382;9.802;2023-01-25T00:35:37;95127.44;;;1.31;100.00
53522;BME280;39398;48.382;9.802;2023-01-25T00:40:39;95123.94;;;1.43;100.00
53522;BME280;39398;48.382;9.802;2023-01-25T00:45:40;95128.16;;;1.07;100.00
53522;BME280;39398;48.382;9.802;2023-01-25T00:50:43;95123.28;;;1.65;100.00
53522;BME280;39398;48.382;9.802;2023-01-25T00:55:50;95118.53;;;1.46;100.00
53522;BME280;39398;48.382;9.802;2023-01-25T01:00:52;95122.84;;;1.34;100.00
53522;BME280;39398;48.382;9.802;2023-01-25T01:06:03;95126.31;;;1.59;100.00
53522;BME280;39398;48.382;9.802;2023-01-25T01:11:08;95124.81;;;1.31;100.00
53522;BME280;39398;48.382;9.802;2023-01-25T01:16:11;95115.56;;;1.01;100.00
53522;BME280;39398;48.382;9.802;2023-01-25T01:21:14;95117.25;;;1.15;100.00
53522;BME280;39398;48.382;9.802;2023-01-25T01:26:17;95122.44;;;1.15;100.00
53522;BME280;39398;48.382;9.802;2023-01-25T01:31:20;95115.84;;;1.48;100.00
53522;BME280;39398;48.382;9.802;2023-01-25T01:36:25;95115.34;;;1.17;100.00
53522;BME280;39398;48.382;9.802;2023-01-25T01:41:27;95118.75;;;1.30;100.00
53522;BME280;39398;48.382;9.802;2023-01-25T01:46:32;95113.78;;;0.89;100.00
53522;BME280;39398;48.382;9.802;2023-01-25T01:51:42;95115.31;;;1.43;100.00
53522;BME280;39398;48.382;9.802;2023-01-25T01:56:49;95111.28;;;1.38;100.00
53522;BME280;39398;48.382;9.802;2023-01-25T02:01:53;95101.63;;;1.28;100.00
53522;BME280;39398;48.382;9.802;2023-01-25T02:07:00;95099.75;;;0.91;100.00
53522;BME280;39398;48.382;9.802;2023-01-25T02:12:05;95098.50;;;1.23;100.00
53522;BME280;39398;48.382;9.802;2023-01-25T02:17:09;95102.78;;;0.98;100.00
53522;BME280;39398;48.382;9.802;2023-01-25T02:22:15;95106.72;;;1.16;100.00
53522;BME280;39398;48.382;9.802;2023-01-25T02:27:20;95105.53;;;1.46;100.00
53522;BME280;39398;48.382;9.802;2023-01-25T02:32:22;95097.91;;;1.06;100.00
53522;BME280;39398;48.382;9.802;2023-01-25T02:37:24;95098.88;;;1.42;100.00
53522;BME280;39398;48.382;9.802;2023-01-25T02:42:30;95099.88;;;1.52;100.00
53522;BME280;39398;48.382;9.802;2023-01-25T02:47:32;95090.44;;;1.75;100.00
53522;BME280;39398;48.382;9.802;2023-01-25T02:52:33;95085.53;;;1.83;100.00
53522;BME280;39398;48.382;9.802;2023-01-25T02:57:36;95080.66;;;1.42;100.00
53522;BME280;39398;48.382;9.802;2023-01-25T03:02:38;95090.06;;;1.69;100.00
53522;BME280;39398;48.382;9.802;2023-01-25T03:07:40;95081.72;;;1.39;100.00
53522;BME280;39398;48.382;9.802;2023-01-25T03:12:42;95078.84;;;1.19;100.00
53522;BME280;39398;48.382;9.802;2023-01-25T03:17:44;95077.66;;;1.35;100.00
53522;BME280;39398;48.382;9.802;2023-01-25T03:22:46;95068.53;;;1.91;100.00
53522;BME280;39398;48.382;9.802;2023-01-25T03:27:48;95067.34;;;1.34;100.00
53522;BME280;39398;48.382;9.802;2023-01-25T03:32:50;95070.66;;;0.61;100.00
53522;BME280;39398;48.382;9.802;2023-01-25T03:37:52;95070.47;;;0.77;100.00
53522;BME280;39398;48.382;9.802;2023-01-25T03:42:55;95069.44;;;1.42;100.00
53522;BME280;39398;48.382;9.802;2023-01-25T03:47:56;95063.78;;;0.85;100.00
53522;BME280;39398;48.382;9.802;2023-01-25T03:52:59;95054.31;;;0.97;100.00
53522;BME280;39398;48.382;9.802;2023-01-25T03:58:02;95048.56;;;1.05;100.00
53522;BME280;39398;48.382;9.802;2023-01-25T04:03:03;95052.75;;;0.69;100.00
53522;BME280;39398;48.382;9.802;2023-01-25T04:08:05;95049.13;;;0.84;100.00
53522;BME280;39398;48.382;9.802;2023-01-25T04:13:08;95038.31;;;0.52;100.00
53522;BME280;39398;48.382;9.802;2023-01-25T04:18:10;95048.50;;;0.55;100.00
53522;BME280;39398;48.382;9.802;2023-01-25T04:23:11;95040.69;;;1.06;100.00
53522;BME280;39398;48.382;9.802;2023-01-25T04:28:14;95038.38;;;1.02;100.00
53522;BME280;39398;48.382;9.802;2023-01-25T04:33:16;95034.09;;;1.13;100.00
53522;BME280;39398;48.382;9.802;2023-01-25T04:38:18;95034.72;;;1.17;100.00
53522;BME280;39398;48.382;9.802;2023-01-25T04:43:21;95026.47;;;0.48;100.00
53522;BME280;39398;48.382;9.802;2023-01-25T04:48:22;95021.28;;;0.74;100.00
53522;BME280;39398;48.382;9.802;2023-01-25T04:53:24;95017.31;;;0.68;100.00
53522;BME280;39398;48.382;9.802;2023-01-25T04:58:27;95020.88;;;1.16;100.00
53522;BME280;39398;48.382;9.802;2023-01-25T05:03:28;95009.59;;;0.92;100.00
53522;BME280;39398;48.382;9.802;2023-01-25T05:08:30;95020.28;;;1.13;100.00
53522;BME280;39398;48.382;9.802;2023-01-25T05:13:33;95012.22;;;0.66;100.00
53522;BME280;39398;48.382;9.802;2023-01-25T05:18:34;95012.31;;;0.78;100.00
53522;BME280;39398;48.382;9.802;2023-01-25T05:23:48;95005.66;;;0.86;100.00
53522;BME280;39398;48.382;9.802;2023-01-25T05:28:51;94999.63;;;0.86;100.00
53522;BME280;39398;48.382;9.802;2023-01-25T05:33:53;95005.66;;;0.99;100.00
53522;BME280;39398;48.382;9.802;2023-01-25T05:38:54;95009.75;;;0.65;100.00
53522;BME280;39398;48.382;9.802;2023-01-25T05:43:57;95002.09;;;1.00;100.00
53522;BME280;39398;48.382;9.802;2023-01-25T05:48:59;95007.94;;;0.91;100.00
53522;BME280;39398;48.382;9.802;2023-01-25T05:54:01;95006.06;;;0.93;100.00
53522;BME280;39398;48.382;9.802;2023-01-25T05:59:04;95005.22;;;0.80;100.00
53522;BME280;39398;48.382;9.802;2023-01-25T06:04:06;95003.09;;;0.61;100.00
53522;BME280;39398;48.382;9.802;2023-01-25T06:09:11;95008.66;;;0.93;100.00
53522;BME280;39398;48.382;9.802;2023-01-25T06:14:14;94998.81;;;1.22;100.00
53522;BME280;39398;48.382;9.802;2023-01-25T06:19:16;94989.16;;;1.11;100.00
53522;BME280;39398;48.382;9.802;2023-01-25T06:24:17;94983.03;;;1.12;100.00
53522;BME280;39398;48.382;9.802;2023-01-25T06:29:20;94980.66;;;1.09;100.00
53522;BME280;39398;48.382;9.802;2023-01-25T06:34:22;94984.59;;;1.15;100.00
53522;BME280;39398;48.382;9.802;2023-01-25T06:39:23;94985.16;;;1.31;100.00
53522;BME280;39398;48.382;9.802;2023-01-25T06:44:26;94973.34;;;1.62;100.00
53522;BME280;39398;48.382;9.802;2023-01-25T06:49:28;94968.03;;;1.16;100.00
53522;BME280;39398;48.382;9.802;2023-01-25T06:54:29;94966.03;;;1.56;100.00
53522;BME280;39398;48.382;9.802;2023-01-25T06:59:54;94970.66;;;1.40;100.00
53522;BME280;39398;48.382;9.802;2023-01-25T07:04:55;94972.81;;;1.22;100.00
53522;BME280;39398;48.382;9.802;2023-01-25T07:09:57;94954.50;;;1.48;100.00
53522;BME280;39398;48.382;9.802;2023-01-25T07:15:00;94955.38;;;1.59;100.00
53522;BME280;39398;48.382;9.802;2023-01-25T07:20:02;94962.03;;;1.39;100.00
53522;BME280;39398;48.382;9.802;2023-01-25T07:25:04;94959.91;;;2.04;100.00
53522;BME280;39398;48.382;9.802;2023-01-25T07:30:09;94957.59;;;1.53;100.00
53522;BME280;39398;48.382;9.802;2023-01-25T07:35:10;94961.66;;;1.57;100.00
53522;BME280;39398;48.382;9.802;2023-01-25T07:40:12;94962.63;;;2.02;100.00
53522;BME280;39398;48.382;9.802;2023-01-25T07:45:15;94952.59;;;1.74;100.00
53522;BME280;39398;48.382;9.802;2023-01-25T07:50:17;94952.72;;;0.87;100.00
53522;BME280;39398;48.382;9.802;2023-01-25T07:55:19;94957.97;;;0.99;100.00
53522;BME280;39398;48.382;9.802;2023-01-25T08:00:22;94940.69;;;1.58;100.00
53522;BME280;39398;48.382;9.802;2023-01-25T08:05:25;94927.75;;;1.81;100.00
53522;BME280;39398;48.382;9.802;2023-01-25T08:10:27;94928.03;;;1.89;100.00
53522;BME280;39398;48.382;9.802;2023-01-25T08:15:30;94926.28;;;1.66;100.00
53522;BME280;39398;48.382;9.802;2023-01-25T08:20:31;94922.44;;;1.82;100.00
53522;BME280;39398;48.382;9.802;2023-01-25T08:25:33;94914.44;;;1.61;100.00
53522;BME280;39398;48.382;9.802;2023-01-25T08:30:35;94919.63;;;1.97;100.00
53522;BME280;39398;48.382;9.802;2023-01-25T08:35:53;94907.56;;;1.25;100.00
53522;BME280;39398;48.382;9.802;2023-01-25T08:40:55;94914.69;;;0.86;100.00
53522;BME280;39398;48.382;9.802;2023-01-25T08:45:57;94917.97;;;0.52;100.00
53522;BME280;39398;48.382;9.802;2023-01-25T08:50:59;94911.72;;;0.54;100.00
53522;BME280;39398;48.382;9.802;2023-01-25T08:56:03;94916.00;;;0.92;100.00
53522;BME280;39398;48.382;9.802;2023-01-25T09:01:07;94915.19;;;0.79;100.00
53522;BME280;39398;48.382;9.802;2023-01-25T09:06:10;94914.59;;;0.75;100.00
53522;BME280;39398;48.382;9.802;2023-01-25T09:11:14;94919.88;;;0.86;100.00
53522;BME280;39398;48.382;9.802;2023-01-25T09:16:20;94911.56;;;1.05;100.00
53522;BME280;39398;48.382;9.802;2023-01-25T09:21:22;94908.16;;;-0.60;100.00
53522;BME280;39398;48.382;9.802;2023-01-25T09:26:24;94921.00;;;-0.06;100.00
53522;BME280;39398;48.382;9.802;2023-01-25T09:31:27;94912.78;;;-0.25;100.00
53522;BME280;39398;48.382;9.802;2023-01-25T09:36:28;94915.19;;;0.29;100.00
53522;BME280;39398;48.382;9.802;2023-01-25T09:41:52;94918.63;;;-0.61;100.00
53522;BME280;39398;48.382;9.802;2023-01-25T09:47:08;94914.97;;;-0.72;100.00
53522;BME280;39398;48.382;9.802;2023-01-25T09:52:32;94915.13;;;-0.87;100.00
53522;BME280;39398;48.382;9.802;2023-01-25T09:57:39;94919.13;;;-0.16;100.00
53522;BME280;39398;48.382;9.802;2023-01-25T10:02:48;94907.63;;;0.26;100.00
53522;BME280;39398;48.382;9.802;2023-01-25T10:07:56;94908.31;;;-0.76;100.00
53522;BME280;39398;48.382;9.802;2023-01-25T10:13:00;94904.03;;;-0.50;100.00
53522;BME280;39398;48.382;9.802;2023-01-25T10:18:09;94895.13;;;-0.85;100.00
53522;BME280;39398;48.382;9.802;2023-01-25T10:23:41;94893.97;;;-0.81;100.00
53522;BME280;39398;48.382;9.802;2023-01-25T10:28:49;94890.59;;;-0.69;100.00
53522;BME280;39398;48.382;9.802;2023-01-25T10:33:56;94884.84;;;-1.14;100.00
53522;BME280;39398;48.382;9.802;2023-01-25T10:38:58;94912.41;;;-0.06;100.00
53522;BME280;39398;48.382;9.802;2023-01-25T10:44:00;94916.13;;;0.03;100.00
53522;BME280;39398;48.382;9.802;2023-01-25T10:49:15;94897.03;;;-0.22;100.00
53522;BME280;39398;48.382;9.802;2023-01-25T10:54:21;94879.56;;;-0.85;100.00
53522;BME280;39398;48.382;9.802;2023-01-25T10:59:24;94863.19;;;-1.13;100.00
53522;BME280;39398;48.382;9.802;2023-01-25T11:04:32;94852.69;;;-0.84;100.00
53522;BME280;39398;48.382;9.802;2023-01-25T11:09:36;94855.53;;;-0.75;100.00
53522;BME280;39398;48.382;9.802;2023-01-25T11:14:38;94844.75;;;-1.08;100.00
53522;BME280;39398;48.382;9.802;2023-01-25T11:19:41;94845.41;;;-0.27;100.00
53522;BME280;39398;48.382;9.802;2023-01-25T11:24:43;94846.25;;;-1.19;100.00
53522;BME280;39398;48.382;9.802;2023-01-25T11:29:45;94845.53;;;-0.81;100.00
53522;BME280;39398;48.382;9.802;2023-01-25T11:35:13;94834.94;;;-0.12;100.00
53522;BME280;39398;48.382;9.802;2023-01-25T11:40:19;94826.75;;;-0.19;100.00
53522;BME280;39398;48.382;9.802;2023-01-25T11:45:34;94807.56;;;0.57;100.00
53522;BME280;39398;48.382;9.802;2023-01-25T11:50:44;94797.84;;;0.48;100.00
53522;BME280;39398;48.382;9.802;2023-01-25T11:55:55;94796.56;;;0.54;100.00
53522;BME280;39398;48.382;9.802;2023-01-25T12:01:06;94787.28;;;0.38;100.00
53522;BME280;39398;48.382;9.802;2023-01-25T12:06:14;94792.25;;;-0.72;100.00
53522;BME280;39398;48.382;9.802;2023-01-25T12:11:33;94788.50;;;-0.94;100.00
53522;BME280;39398;48.382;9.802;2023-01-25T12:16:51;94773.47;;;-1.01;100.00
53522;BME280;39398;48.382;9.802;2023-01-25T12:22:13;94764.84;;;-1.02;100.00
53522;BME280;39398;48.382;9.802;2023-01-25T12:27:47;94742.16;;;-0.47;100.00
53522;BME280;39398;48.382;9.802;2023-01-25T12:32:56;94730.22;;;-0.88;100.00
53522;BME280;39398;48.382;9.802;2023-01-25T12:38:21;94722.88;;;-0.68;100.00
53522;BME280;39398;48.382;9.802;2023-01-25T12:43:29;94714.06;;;-0.53;100.00
53522;BME280;39398;48.382;9.802;2023-01-25T12:48:35;94710.63;;;-0.54;100.00
53522;BME280;39398;48.382;9.802;2023-01-25T12:53:43;94692.91;;;-0.10;100.00
53522;BME280;39398;48.382;9.802;2023-01-25T12:58:49;94691.69;;;-0.17;100.00
53522;BME280;39398;48.382;9.802;2023-01-25T13:04:04;94685.44;;;-0.15;100.00
53522;BME280;39398;48.382;9.802;2023-01-25T13:09:15;94668.28;;;0.43;100.00
53522;BME280;39398;48.382;9.802;2023-01-25T13:14:27;94665.19;;;0.14;100.00
53522;BME280;39398;48.382;9.802;2023-01-25T13:19:39;94661.53;;;-0.07;100.00
53522;BME280;39398;48.382;9.802;2023-01-25T13:25:18;94661.47;;;-0.94;100.00
53522;BME280;39398;48.382;9.802;2023-01-25T13:30:31;94671.03;;;-0.81;100.00
53522;BME280;39398;48.382;9.802;2023-01-25T13:35:41;94663.44;;;-1.10;100.00
53522;BME280;39398;48.382;9.802;2023-01-25T13:41:01;94664.41;;;-0.98;100.00
53522;BME280;39398;48.382;9.802;2023-01-25T13:46:03;94652.28;;;-0.35;100.00
53522;BME280;39398;48.382;9.802;2023-01-25T13:51:09;94637.34;;;-0.32;100.00
53522;BME280;39398;48.382;9.802;2023-01-25T13:56:26;94633.16;;;0.03;100.00
53522;BME280;39398;48.382;9.802;2023-01-25T14:01:29;94626.53;;;0.22;100.00
53522;BME280;39398;48.382;9.802;2023-01-25T14:06:33;94626.94;;;0.40;100.00
53522;BME280;39398;48.382;9.802;2023-01-25T14:11:45;94630.47;;;0.75;100.00
53522;BME280;39398;48.382;9.802;2023-01-25T14:17:00;94625.38;;;0.38;100.00
53522;BME280;39398;48.382;9.802;2023-01-25T14:22:21;94626.78;;;0.31;100.00
53522;BME280;39398;48.382;9.802;2023-01-25T14:27:24;94624.78;;;0.34;100.00
53522;BME280;39398;48.382;9.802;2023-01-25T14:32:26;94606.16;;;0.40;100.00
53522;BME280;39398;48.382;9.802;2023-01-25T14:37:28;94602.59;;;0.88;100.00
53522;BME280;39398;48.382;9.802;2023-01-25T14:42:31;94603.03;;;0.59;100.00
53522;BME280;39398;48.382;9.802;2023-01-25T14:47:34;94604.75;;;0.47;100.00
53522;BME280;39398;48.382;9.802;2023-01-25T14:52:38;94592.81;;;0.80;100.00
53522;BME280;39398;48.382;9.802;2023-01-25T14:57:42;94591.94;;;-0.50;100.00
53522;BME280;39398;48.382;9.802;2023-01-25T15:02:46;94594.59;;;-0.39;100.00
53522;BME280;39398;48.382;9.802;2023-01-25T15:07:50;94597.59;;;-0.69;100.00
53522;BME280;39398;48.382;9.802;2023-01-25T15:12:58;94588.41;;;0.23;100.00
53522;BME280;39398;48.382;9.802;2023-01-25T15:18:45;94583.47;;;0.31;100.00
53522;BME280;39398;48.382;9.802;2023-01-25T15:23:48;94584.50;;;0.29;100.00
53522;BME280;39398;48.382;9.802;2023-01-25T15:28:52;94581.38;;;0.47;100.00
53522;BME280;39398;48.382;9.802;2023-01-25T15:33:55;94573.09;;;-0.28;100.00
53522;BME280;39398;48.382;9.802;2023-01-25T15:38:57;94564.19;;;-0.74;100.00
53522;BME280;39398;48.382;9.802;2023-01-25T15:44:00;94559.16;;;0.32;100.00
53522;BME280;39398;48.382;9.802;2023-01-25T15:49:03;94546.84;;;-0.12;100.00
53522;BME280;39398;48.382;9.802;2023-01-25T15:54:05;94546.59;;;0.61;100.00
53522;BME280;39398;48.382;9.802;2023-01-25T15:59:15;94532.66;;;1.07;100.00
53522;BME280;39398;48.382;9.802;2023-01-25T16:04:17;94526.25;;;0.89;100.00
53522;BME280;39398;48.382;9.802;2023-01-25T16:09:20;94528.38;;;0.73;100.00
53522;BME280;39398;48.382;9.802;2023-01-25T16:14:25;94526.59;;;0.51;100.00
53522;BME280;39398;48.382;9.802;2023-01-25T16:19:27;94517.84;;;0.29;100.00
53522;BME280;39398;48.382;9.802;2023-01-25T16:24:29;94514.94;;;0.90;100.00
53522;BME280;39398;48.382;9.802;2023-01-25T16:29:31;94507.59;;;0.61;100.00
53522;BME280;39398;48.382;9.802;2023-01-25T16:34:33;94505.44;;;0.33;100.00
53522;BME280;39398;48.382;9.802;2023-01-25T16:39:35;94507.91;;;0.34;100.00
53522;BME280;39398;48.382;9.802;2023-01-25T16:44:38;94501.22;;;0.43;100.00
53522;BME280;39398;48.382;9.802;2023-01-25T16:49:39;94497.22;;;0.61;100.00
53522;BME280;39398;48.382;9.802;2023-01-25T16:54:41;94500.16;;;0.45;100.00
53522;BME280;39398;48.382;9.802;2023-01-25T16:59:44;94497.56;;;0.57;100.00
53522;BME280;39398;48.382;9.802;2023-01-25T17:04:46;94487.53;;;0.75;100.00
53522;BME280;39398;48.382;9.802;2023-01-25T17:09:47;94480.31;;;0.78;100.00
53522;BME280;39398;48.382;9.802;2023-01-25T17:14:52;94471.22;;;0.73;100.00
53522;BME280;39398;48.382;9.802;2023-01-25T17:19:53;94467.44;;;0.54;100.00
53522;BME280;39398;48.382;9.802;2023-01-25T17:24:55;94465.63;;;0.21;100.00
53522;BME280;39398;48.382;9.802;2023-01-25T17:29:58;94459.78;;;0.86;100.00
53522;BME280;39398;48.382;9.802;2023-01-25T17:34:59;94454.78;;;0.27;100.00
53522;BME280;39398;48.382;9.802;2023-01-25T17:40:01;94457.50;;;0.37;100.00
53522;BME280;39398;48.382;9.802;2023-01-25T17:45:05;94451.75;;;0.56;100.00
53522;BME280;39398;48.382;9.802;2023-01-25T17:50:08;94454.53;;;0.19;100.00
53522;BME280;39398;48.382;9.802;2023-01-25T17:55:10;94442.78;;;-0.20;100.00
53522;BME280;39398;48.382;9.802;2023-01-25T18:00:28;94437.78;;;0.34;100.00
53522;BME280;39398;48.382;9.802;2023-01-25T18:05:30;94436.00;;;0.80;100.00
53522;BME280;39398;48.382;9.802;2023-01-25T18:10:32;94430.00;;;0.57;100.00
53522;BME280;39398;48.382;9.802;2023-01-25T18:15:35;94419.25;;;0.28;100.00
53522;BME280;39398;48.382;9.802;2023-01-25T18:20:38;94414.78;;;0.41;100.00
53522;BME280;39398;48.382;9.802;2023-01-25T18:25:39;94410.00;;;0.91;100.00
53522;BME280;39398;48.382;9.802;2023-01-25T18:30:48;94405.91;;;0.43;100.00
53522;BME280;39398;48.382;9.802;2023-01-25T18:35:51;94395.16;;;0.71;100.00
53522;BME280;39398;48.382;9.802;2023-01-25T18:40:52;94393.03;;;0.53;100.00
53522;BME280;39398;48.382;9.802;2023-01-25T18:45:57;94389.25;;;0.57;100.00
53522;BME280;39398;48.382;9.802;2023-01-25T18:51:04;94382.91;;;0.61;100.00
53522;BME280;39398;48.382;9.802;2023-01-25T18:56:07;94384.56;;;1.06;100.00
53522;BME280;39398;48.382;9.802;2023-01-25T19:01:13;94383.38;;;0.21;100.00
53522;BME280;39398;48.382;9.802;2023-01-25T19:06:16;94381.22;;;0.60;100.00
53522;BME280;39398;48.382;9.802;2023-01-25T19:11:19;94375.97;;;0.94;100.00
53522;BME280;39398;48.382;9.802;2023-01-25T19:16:23;94362.06;;;0.84;100.00
53522;BME280;39398;48.382;9.802;2023-01-25T19:21:26;94355.34;;;1.13;100.00
53522;BME280;39398;48.382;9.802;2023-01-25T19:26:28;94356.97;;;0.82;100.00
53522;BME280;39398;48.382;9.802;2023-01-25T19:31:31;94349.50;;;1.21;100.00
53522;BME280;39398;48.382;9.802;2023-01-25T19:36:34;94344.34;;;0.78;100.00
53522;BME280;39398;48.382;9.802;2023-01-25T19:41:36;94355.47;;;1.12;100.00
53522;BME280;39398;48.382;9.802;2023-01-25T19:46:39;94345.13;;;0.35;100.00
53522;BME280;39398;48.382;9.802;2023-01-25T19:51:43;94344.19;;;-0.09;100.00
53522;BME280;39398;48.382;9.802;2023-01-25T19:56:46;94336.19;;;0.16;100.00
53522;BME280;39398;48.382;9.802;2023-01-25T20:01:50;94325.84;;;0.60;100.00
53522;BME280;39398;48.382;9.802;2023-01-25T20:06:51;94324.75;;;0.74;100.00
53522;BME280;39398;48.382;9.802;2023-01-25T20:11:54;94312.28;;;0.56;100.00
53522;BME280;39398;48.382;9.802;2023-01-25T20:16:57;94314.16;;;0.54;100.00
53522;BME280;39398;48.382;9.802;2023-01-25T20:21:59;94309.84;;;0.21;100.00
53522;BME280;39398;48.382;9.802;2023-01-25T20:27:01;94301.34;;;-0.26;100.00
53522;BME280;39398;48.382;9.802;2023-01-25T20:32:06;94300.59;;;-0.62;100.00
53522;BME280;39398;48.382;9.802;2023-01-25T20:37:08;94293.50;;;-0.82;100.00
53522;BME280;39398;48.382;9.802;2023-01-25T20:42:09;94289.63;;;-0.65;100.00
53522;BME280;39398;48.382;9.802;2023-01-25T20:47:12;94275.66;;;-0.18;100.00
53522;BME280;39398;48.382;9.802;2023-01-25T20:52:14;94282.50;;;-0.06;100.00
53522;BME280;39398;48.382;9.802;2023-01-25T20:57:17;94275.69;;;0.48;100.00
53522;BME280;39398;48.382;9.802;2023-01-25T21:02:20;94267.38;;;0.11;100.00
53522;BME280;39398;48.382;9.802;2023-01-25T21:07:22;94263.31;;;0.73;100.00
53522;BME280;39398;48.382;9.802;2023-01-25T21:12:24;94260.69;;;-0.03;100.00
53522;BME280;39398;48.382;9.802;2023-01-25T21:17:26;94251.31;;;0.17;100.00
53522;BME280;39398;48.382;9.802;2023-01-25T21:22:28;94253.78;;;0.30;100.00
53522;BME280;39398;48.382;9.802;2023-01-25T21:27:30;94250.06;;;0.43;100.00
53522;BME280;39398;48.382;9.802;2023-01-25T21:32:33;94246.59;;;0.54;100.00
53522;BME280;39398;48.382;9.802;2023-01-25T21:37:34;94250.63;;;0.04;100.00
53522;BME280;39398;48.382;9.802;2023-01-25T21:42:36;94249.78;;;0.03;100.00
53522;BME280;39398;48.382;9.802;2023-01-25T21:47:39;94240.50;;;-0.67;100.00
53522;BME280;39398;48.382;9.802;2023-01-25T21:52:41;94238.16;;;-0.25;100.00
53522;BME280;39398;48.382;9.802;2023-01-25T21:57:42;94227.66;;;-0.24;100.00
53522;BME280;39398;48.382;9.802;2023-01-25T22:02:45;94225.56;;;0.25;100.00
53522;BME280;39398;48.382;9.802;2023-01-25T22:07:47;94221.38;;;0.77;100.00
53522;BME280;39398;48.382;9.802;2023-01-25T22:12:48;94206.47;;;0.79;100.00
53522;BME280;39398;48.382;9.802;2023-01-25T22:17:51;94205.03;;;0.22;100.00
53522;BME280;39398;48.382;9.802;2023-01-25T22:22:53;94192.84;;;0.66;100.00
53522;BME280;39398;48.382;9.802;2023-01-25T22:27:58;94180.34;;;1.02;100.00
53522;BME280;39398;48.382;9.802;2023-01-25T22:33:01;94179.38;;;0.93;100.00
53522;BME280;39398;48.382;9.802;2023-01-25T22:38:03;94181.47;;;0.99;100.00
53522;BME280;39398;48.382;9.802;2023-01-25T22:43:04;94168.66;;;0.54;100.00
53522;BME280;39398;48.382;9.802;2023-01-25T22:48:07;94173.25;;;0.62;100.00
53522;BME280;39398;48.382;9.802;2023-01-25T22:53:09;94166.66;;;0.79;100.00
53522;BME280;39398;48.382;9.802;2023-01-25T22:58:11;94163.09;;;0.80;100.00
53522;BME280;39398;48.382;9.802;2023-01-25T23:03:14;94156.56;;;0.43;100.00
53522;BME280;39398;48.382;9.802;2023-01-25T23:08:15;94154.88;;;0.21;100.00
53522;BME280;39398;48.382;9.802;2023-01-25T23:13:17;94146.59;;;0.81;100.00
53522;BME280;39398;48.382;9.802;2023-01-25T23:18:20;94146.75;;;1.10;100.00
53522;BME280;39398;48.382;9.802;2023-01-25T23:23:22;94151.59;;;-0.35;100.00
53522;BME280;39398;48.382;9.802;2023-01-25T23:28:23;94150.47;;;-0.10;100.00
53522;BME280;39398;48.382;9.802;2023-01-25T23:33:28;94132.38;;;0.85;100.00
53522;BME280;39398;48.382;9.802;2023-01-25T23:38:29;94119.31;;;0.54;100.00
53522;BME280;39398;48.382;9.802;2023-01-25T23:43:31;94122.75;;;0.97;100.00
53522;BME280;39398;48.382;9.802;2023-01-25T23:48:34;94111.72;;;1.14;100.00
53522;BME280;39398;48.382;9.802;2023-01-25T23:53:36;94106.66;;;0.61;100.00
53522;BME280;39398;48.382;9.802;2023-01-25T23:58:38;94116.47;;;0.57;100.00
